Maxwell, New Mexico
Current Conditions -  °F | °C
As of 1:53 AM on Thursday 23 Oct 2014 (Local Time) from KRTN Reporting Station
Clear Clear  
Wind Chill: 38°   Ceiling: Unl
Heat Index: 42°   Visibility: 10mi
Dew Point: 38°   Wind: 7mph
Humidity: 85%   Direction: 80°E
Pressure: 30.2"   Gusts: NA
Location:  36.54°N, 104.54°W
Report Text: KRTN 230753Z AUTO 08006KT 10SM CLR 06/03 A3020 RMK AO2 SLP166 T00560033
Loading
Personal Weather Stations






























Interactive Weather Map
Tropical Storm Tracking
New forecast layout! Learn more

10-Day Weather Forecast

Advertisements
Track Severe Weather on mobile